Washington, Arkansas
Current Conditions -  °F | °C
As of 6:53 AM on Thursday 27 Nov 2014 (Local Time) from KTXK Reporting Station
Clear Clear  
Wind Chill: 30°   Ceiling: Unl
Heat Index: 37°   Visibility: 10mi
Dew Point: 28°   Wind: 9mph
Humidity: 70%   Direction: 290°WNW
Pressure: 30.5"   Gusts: NA
Location:  33.77°N, 93.68°W
Report Text: KTXK 271253Z 29008KT 10SM CLR 03/M02 A3050 RMK AO2 SLP330 T00281022
Loading
Personal Weather Stations






























Interactive Weather Map New forecast layout! Learn more

10-Day Weather Forecast

Advertisements
Track Severe Weather on mobile